Time;durP1;ratioP1;P1;durP2;ratioP2;P2;SDS_P1;SDS_P2;PMS_P1;PMS_P2;Temp;Humidity;BMP_temperature;BMP_pressure;BME280_temperature;BME280_humidity;BME280_pressure;Samples;Min_cycle;Max_cycle;Signal;HPM_P1;HPM_P2
2024/03/30 00:00:59;;;;;;;9.00;3.65;;;8.40;99.90;;;;;;5030080;28;20167;-76
2024/03/30 00:03:25;;;;;;;10.43;4.50;;;7.60;99.90;;;;;;5035705;28;20063;-76
2024/03/30 00:06:00;;;;;;;15.60;4.35;;;8.20;99.90;;;;;;5029024;28;20431;-77
2024/03/30 00:08:26;;;;;;;11.63;4.22;;;8.20;99.90;;;;;;5032202;28;20124;-74
2024/03/30 00:11:00;;;;;;;17.50;5.22;;;8.10;99.90;;;;;;5031714;28;20534;-77
2024/03/30 00:13:26;;;;;;;15.25;5.00;;;8.10;99.90;;;;;;5032820;28;20671;-77
2024/03/30 00:15:51;;;;;;;18.25;4.50;;;8.10;99.90;;;;;;5031377;28;20029;-75
2024/03/30 00:18:17;;;;;;;18.05;4.47;;;8.00;99.90;;;;;;5032330;28;20113;-76
2024/03/30 00:20:43;;;;;;;16.70;5.00;;;8.10;99.90;;;;;;5030922;28;20034;-74
2024/03/30 00:23:08;;;;;;;16.80;5.25;;;8.00;99.90;;;;;;5032320;28;20043;-77
2024/03/30 00:25:34;;;;;;;15.57;4.60;;;8.00;99.90;;;;;;5032577;28;20042;-78
2024/03/30 00:27:59;;;;;;;15.32;5.38;;;8.00;99.90;;;;;;5030015;28;20041;-77
2024/03/30 00:30:25;;;;;;;23.85;6.05;;;8.00;99.90;;;;;;5025761;28;20037;-77
2024/03/30 00:32:51;;;;;;;26.63;5.97;;;8.00;99.90;;;;;;5031481;28;20028;-77
2024/03/30 00:35:16;;;;;;;23.92;5.50;;;7.90;99.90;;;;;;5032299;28;20039;-77
2024/03/30 00:37:42;;;;;;;19.45;4.90;;;7.90;99.90;;;;;;5031319;28;20509;-77
2024/03/30 00:40:08;;;;;;;26.00;5.03;;;7.90;99.90;;;;;;5023730;28;20065;-75
2024/03/30 00:42:34;;;;;;;20.05;5.13;;;7.90;99.90;;;;;;5032190;28;20030;-76
2024/03/30 00:45:00;;;;;;;22.98;5.40;;;7.90;99.90;;;;;;5031253;28;20041;-76
2024/03/30 00:47:25;;;;;;;20.90;4.80;;;7.90;99.90;;;;;;5032045;28;20136;-76
2024/03/30 00:49:51;;;;;;;19.30;4.28;;;7.80;99.90;;;;;;5031902;28;20043;-76
2024/03/30 00:52:17;;;;;;;19.13;4.93;;;7.80;99.90;;;;;;5031731;28;20408;-76
2024/03/30 00:54:42;;;;;;;30.70;6.97;;;7.80;99.90;;;;;;5031559;28;20017;-75
2024/03/30 00:57:09;;;;;;;21.50;4.50;;;7.80;99.90;;;;;;5030794;28;20422;-76
2024/03/30 00:59:36;;;;;;;30.90;5.25;;;7.80;99.90;;;;;;5032322;28;20053;-77
2024/03/30 01:02:02;;;;;;;29.60;4.97;;;7.90;99.90;;;;;;5031007;28;20024;-76
2024/03/30 01:04:29;;;;;;;33.33;7.70;;;7.90;99.90;;;;;;5029680;28;20498;-76
2024/03/30 01:06:58;;;;;;;29.38;6.10;;;7.90;99.90;;;;;;5030288;28;20048;-75
2024/03/30 01:09:25;;;;;;;30.83;6.65;;;7.90;99.90;;;;;;5031844;28;20017;-76
2024/03/30 01:11:51;;;;;;;23.35;5.30;;;7.80;99.90;;;;;;5030770;28;20048;-76
2024/03/30 01:14:18;;;;;;;29.90;6.78;;;7.80;99.90;;;;;;5031384;28;20479;-75
2024/03/30 01:16:45;;;;;;;33.90;5.97;;;7.80;99.90;;;;;;5030642;28;20029;-76
2024/03/30 01:19:11;;;;;;;28.65;6.40;;;7.80;99.90;;;;;;5027651;28;20124;-76
2024/03/30 01:21:37;;;;;;;22.83;5.40;;;7.80;99.90;;;;;;5022371;28;20105;-72
2024/03/30 01:24:06;;;;;;;29.17;5.63;;;;;;;;;;5030658;28;20096;-75
2024/03/30 01:26:33;;;;;;;22.38;6.65;;;;;;;;;;5024977;28;20061;-77
2024/03/30 01:29:00;;;;;;;31.83;6.57;;;;;;;;;;5029428;28;20028;-76
2024/03/30 01:31:30;;;;;;;33.03;5.82;;;;;;;;;;5030448;28;20037;-77
2024/03/30 01:33:59;;;;;;;23.80;5.47;;;;;;;;;;5030594;28;20148;-78
2024/03/30 01:36:28;;;;;;;33.93;6.30;;;;;;;;;;5030687;28;20470;-77
2024/03/30 01:38:57;;;;;;;24.75;6.68;;;;;;;;;;5030799;28;20256;-78
2024/03/30 01:41:26;;;;;;;25.38;7.05;;;;;;;;;;5030595;28;20075;-76
2024/03/30 01:43:56;;;;;;;33.72;6.82;;;;;;;;;;5030163;28;20438;-75
2024/03/30 01:46:27;;;;;;;33.20;6.95;;;;;;;;;;5030520;28;20030;-78
2024/03/30 01:48:56;;;;;;;31.25;7.35;;;;;;;;;;5024784;28;20378;-78
2024/03/30 01:51:27;;;;;;;25.33;6.43;;;;;;;;;;5026479;28;20079;-78
2024/03/30 01:53:56;;;;;;;42.40;6.47;;;;;;;;;;5030043;28;20037;-77
2024/03/30 01:56:25;;;;;;;53.15;7.65;;;;;;;;;;5029571;28;20029;-78
2024/03/30 01:58:54;;;;;;;53.47;8.93;;;;;;;;;;5043410;28;20083;-77
2024/03/30 02:01:23;;;;;;;47.45;7.93;;;;;;;;;;5030557;28;20182;-74
2024/03/30 02:03:51;;;;;;;75.22;11.32;;;;;;;;;;5030238;28;20026;-76
2024/03/30 02:06:20;;;;;;;69.90;8.77;;;;;;;;;;5030440;28;20033;-77
2024/03/30 02:08:48;;;;;;;72.25;9.13;;;;;;;;;;5030186;28;20111;-77
2024/03/30 02:11:15;;;;;;;77.50;11.30;;;9.10;99.90;;;;;;5030017;28;20037;-77
2024/03/30 02:13:41;;;;;;;61.85;10.02;;;9.80;99.90;;;;;;5025592;28;20060;-74
2024/03/30 02:16:07;;;;;;;66.93;11.15;;;10.50;99.90;;;;;;5029889;28;20049;-76
2024/03/30 02:18:32;;;;;;;80.25;9.63;;;11.10;99.90;;;;;;5031098;28;20029;-78
2024/03/30 02:20:58;;;;;;;69.05;9.45;;;11.70;99.90;;;;;;5029325;28;20044;-77
2024/03/30 02:23:23;;;;;;;85.35;10.93;;;12.10;99.90;;;;;;5030507;28;20037;-76
2024/03/30 02:25:49;;;;;;;90.60;12.50;;;12.60;98.30;;;;;;5029692;28;20049;-77
2024/03/30 02:28:15;;;;;;;67.05;9.88;;;13.00;96.90;;;;;;5027873;28;20026;-74
2024/03/30 02:30:42;;;;;;;82.22;11.70;;;13.30;97.50;;;;;;5029376;28;20545;-71
2024/03/30 02:33:08;;;;;;;63.15;8.90;;;13.40;96.60;;;;;;5030335;28;20091;-75
2024/03/30 02:35:34;;;;;;;73.57;10.68;;;13.50;96.60;;;;;;5028996;28;20029;-75
2024/03/30 02:37:59;;;;;;;59.22;8.50;;;13.50;96.00;;;;;;5029476;28;20524;-75
2024/03/30 02:40:27;;;;;;;71.85;8.90;;;13.50;95.40;;;;;;5029743;28;20025;-76
2024/03/30 02:42:53;;;;;;;57.33;8.88;;;13.50;96.30;;;;;;5026186;28;20029;-78
2024/03/30 02:45:19;;;;;;;64.97;9.18;;;13.50;95.30;;;;;;5030173;28;20099;-78
2024/03/30 02:47:44;;;;;;;53.97;8.27;;;13.50;95.60;;;;;;5029053;28;20470;-77
2024/03/30 02:50:10;;;;;;;74.05;9.65;;;13.50;95.90;;;;;;5029531;28;20049;-78
2024/03/30 02:52:36;;;;;;;55.83;8.23;;;13.50;95.40;;;;;;5029832;28;20026;-75
2024/03/30 02:55:01;;;;;;;51.72;7.97;;;13.50;95.30;;;;;;5029549;28;20067;-78
2024/03/30 02:57:27;;;;;;;83.35;10.73;;;13.40;95.40;;;;;;5029787;28;20192;-75
2024/03/30 02:59:52;;;;;;;60.90;9.48;;;13.40;94.30;;;;;;5029525;28;20029;-77
2024/03/30 03:02:18;;;;;;;52.65;8.00;;;13.60;94.30;;;;;;5030221;28;20030;-77
2024/03/30 03:04:44;;;;;;;62.50;9.52;;;13.60;94.10;;;;;;5029105;28;20056;-77
2024/03/30 03:07:10;;;;;;;68.22;7.35;;;13.60;93.30;;;;;;5029963;28;20038;-78
2024/03/30 03:09:35;;;;;;;61.63;9.57;;;13.70;93.20;;;;;;5030166;28;20040;-77
2024/03/30 03:12:02;;;;;;;49.50;7.70;;;13.80;92.90;;;;;;5028693;28;20026;-77
2024/03/30 03:14:31;;;;;;;54.50;8.00;;;13.90;92.20;;;;;;5027940;28;20025;-76
2024/03/30 03:16:57;;;;;;;49.38;6.93;;;14.10;91.50;;;;;;5028797;28;20604;-76
2024/03/30 03:19:23;;;;;;;75.03;9.05;;;14.30;90.80;;;;;;5030249;28;20143;-76
2024/03/30 03:21:48;;;;;;;62.70;8.25;;;14.50;90.40;;;;;;5027826;28;20112;-76
2024/03/30 03:24:14;;;;;;;59.47;7.88;;;14.60;89.70;;;;;;5029986;28;20025;-76
2024/03/30 03:26:40;;;;;;;55.70;7.82;;;14.80;89.00;;;;;;5028782;28;20154;-72
2024/03/30 03:29:05;;;;;;;63.90;7.93;;;14.90;87.70;;;;;;5029748;28;20029;-77
2024/03/30 03:31:31;;;;;;;57.60;6.82;;;15.10;86.50;;;;;;5024245;28;20025;-78
2024/03/30 03:33:57;;;;;;;50.42;7.60;;;15.20;86.50;;;;;;5029220;28;20159;-77
2024/03/30 03:36:22;;;;;;;52.50;6.60;;;15.20;86.20;;;;;;5029447;28;20049;-78
2024/03/30 03:38:48;;;;;;;45.40;6.95;;;15.20;85.00;;;;;;5029291;28;20021;-77
2024/03/30 03:41:13;;;;;;;42.17;7.47;;;15.20;85.10;;;;;;5028822;28;20029;-77
2024/03/30 03:43:40;;;;;;;53.28;7.97;;;15.20;84.90;;;;;;5027105;28;20053;-72
2024/03/30 03:46:06;;;;;;;53.28;7.65;;;15.30;84.50;;;;;;5029486;28;20120;-77
2024/03/30 03:48:32;;;;;;;45.67;6.53;;;15.30;84.00;;;;;;5024337;28;20064;-76
2024/03/30 03:50:58;;;;;;;41.05;7.15;;;15.30;83.30;;;;;;5028942;28;20088;-76
2024/03/30 03:53:24;;;;;;;43.20;7.68;;;15.30;83.50;;;;;;5030924;28;20029;-77
2024/03/30 03:55:49;;;;;;;42.05;8.07;;;15.30;84.20;;;;;;5031911;28;20061;-76
2024/03/30 03:58:15;;;;;;;37.38;6.43;;;15.20;83.90;;;;;;5033285;28;20080;-77
2024/03/30 04:00:40;;;;;;;45.28;6.40;;;15.20;85.10;;;;;;5028630;28;20033;-77
2024/03/30 04:03:06;;;;;;;35.58;6.55;;;15.00;85.50;;;;;;5032570;28;20025;-78
2024/03/30 04:05:32;;;;;;;43.33;6.55;;;15.00;84.90;;;;;;5032688;28;20045;-77
2024/03/30 04:07:58;;;;;;;47.50;6.38;;;14.90;85.90;;;;;;5031736;28;20458;-77
2024/03/30 04:10:24;;;;;;;38.97;5.32;;;14.80;85.00;;;;;;5032650;28;20045;-77
2024/03/30 04:12:50;;;;;;;40.05;7.13;;;14.80;85.60;;;;;;5031430;28;20021;-78
2024/03/30 04:15:16;;;;;;;43.55;5.85;;;14.70;85.70;;;;;;5030444;28;20042;-77
2024/03/30 04:17:42;;;;;;;35.40;4.95;;;14.60;85.70;;;;;;5031583;28;20114;-77
2024/03/30 04:20:08;;;;;;;44.08;6.32;;;14.60;86.00;;;;;;5033193;28;20057;-78
2024/03/30 04:22:33;;;;;;;32.72;5.75;;;14.50;86.10;;;;;;5032404;28;20029;-78
2024/03/30 04:24:59;;;;;;;40.03;7.63;;;14.40;86.60;;;;;;5032143;28;20177;-78
2024/03/30 04:27:24;;;;;;;41.20;5.43;;;14.30;87.60;;;;;;5032072;28;20091;-78
2024/03/30 04:29:50;;;;;;;38.22;5.28;;;14.20;88.90;;;;;;5032231;28;20044;-78
2024/03/30 04:32:16;;;;;;;33.00;7.47;;;14.00;90.00;;;;;;5018704;28;20037;-79
2024/03/30 04:34:41;;;;;;;35.38;6.43;;;13.80;90.30;;;;;;5032327;28;20029;-78
2024/03/30 04:37:07;;;;;;;45.05;7.00;;;13.50;90.80;;;;;;5031816;28;20172;-76
2024/03/30 04:39:33;;;;;;;34.42;7.95;;;13.30;91.10;;;;;;5031139;28;20030;-78
2024/03/30 04:41:59;;;;;;;34.72;6.63;;;13.10;91.60;;;;;;5030546;28;20025;-78
2024/03/30 04:44:25;;;;;;;29.00;5.53;;;12.90;91.90;;;;;;5032138;28;20030;-79
2024/03/30 04:46:51;;;;;;;36.45;6.45;;;12.70;91.50;;;;;;5031096;28;20036;-79
2024/03/30 04:49:16;;;;;;;33.80;6.65;;;12.70;91.80;;;;;;5032519;28;20037;-78
2024/03/30 04:51:42;;;;;;;35.92;5.75;;;12.60;91.30;;;;;;5031367;28;20030;-78
2024/03/30 04:54:08;;;;;;;28.30;4.88;;;12.60;91.20;;;;;;5031465;28;20033;-76
2024/03/30 04:56:34;;;;;;;29.85;5.15;;;12.60;91.20;;;;;;5031991;28;20038;-76
2024/03/30 04:58:59;;;;;;;31.08;4.63;;;12.70;90.70;;;;;;5032133;28;20101;-77
2024/03/30 05:01:25;;;;;;;30.42;5.07;;;12.80;90.00;;;;;;5032146;28;20428;-76
2024/03/30 05:03:51;;;;;;;27.30;5.05;;;12.90;89.50;;;;;;5028643;28;20037;-77
2024/03/30 05:06:16;;;;;;;36.80;5.22;;;13.10;87.60;;;;;;5030842;28;20116;-77
2024/03/30 05:08:42;;;;;;;33.72;4.55;;;13.40;86.70;;;;;;5031748;28;20083;-77
2024/03/30 05:11:07;;;;;;;35.53;5.90;;;13.60;85.60;;;;;;5031274;28;20056;-77
2024/03/30 05:13:33;;;;;;;33.90;5.45;;;13.90;84.70;;;;;;5031800;28;20029;-77
2024/03/30 05:15:58;;;;;;;30.88;4.50;;;14.20;84.10;;;;;;5030851;28;20036;-77
2024/03/30 05:18:26;;;;;;;30.17;3.70;;;14.30;83.40;;;;;;5031860;28;20036;-77
2024/03/30 05:21:00;;;;;;;25.83;4.40;;;14.50;82.70;;;;;;5030614;28;20061;-75
2024/03/30 05:23:31;;;;;;;33.42;5.53;;;14.60;83.20;;;;;;5031607;28;20375;-76
2024/03/30 05:25:59;;;;;;;27.45;4.63;;;14.70;83.90;;;;;;5021927;28;20303;-77
2024/03/30 05:28:26;;;;;;;28.77;4.45;;;14.60;83.00;;;;;;5031262;28;20033;-77
2024/03/30 05:30:54;;;;;;;22.23;5.25;;;14.60;83.30;;;;;;5030363;28;20025;-77
2024/03/30 05:33:21;;;;;;;23.20;5.43;;;14.50;84.40;;;;;;5031889;28;20033;-77
2024/03/30 05:35:48;;;;;;;24.73;5.18;;;14.40;85.60;;;;;;5030529;28;20526;-77
2024/03/30 05:38:14;;;;;;;25.38;5.88;;;14.20;87.90;;;;;;5031813;28;20485;-77
2024/03/30 05:40:41;;;;;;;21.20;5.40;;;14.10;90.20;;;;;;5030421;28;20395;-72
2024/03/30 05:43:07;;;;;;;34.85;6.70;;;13.90;91.90;;;;;;5030842;28;20040;-75
2024/03/30 05:45:34;;;;;;;30.92;6.10;;;13.70;92.90;;;;;;5031731;28;20026;-77
2024/03/30 05:48:00;;;;;;;33.08;6.60;;;13.50;93.70;;;;;;5030394;28;20475;-77
2024/03/30 05:50:26;;;;;;;33.08;6.18;;;13.40;94.90;;;;;;5031948;28;20095;-78
2024/03/30 05:52:52;;;;;;;36.25;5.55;;;13.30;95.30;;;;;;5030442;28;20052;-77
2024/03/30 05:55:18;;;;;;;35.60;6.78;;;13.10;95.50;;;;;;5030011;28;20022;-76
2024/03/30 05:57:44;;;;;;;36.95;5.57;;;13.00;95.60;;;;;;5015342;28;20475;-76
2024/03/30 06:00:11;;;;;;;33.13;7.05;;;13.00;96.00;;;;;;5012120;28;20034;-77
2024/03/30 06:02:40;;;;;;;36.53;5.97;;;13.00;94.60;;;;;;5031080;28;20116;-75
2024/03/30 06:05:06;;;;;;;39.08;6.25;;;13.10;93.30;;;;;;5030690;28;20046;-77
2024/03/30 06:07:32;;;;;;;33.95;5.47;;;13.30;92.60;;;;;;5030844;28;20083;-77
2024/03/30 06:09:57;;;;;;;33.40;7.15;;;13.60;90.80;;;;;;5030739;28;20370;-78
2024/03/30 06:12:23;;;;;;;30.08;5.57;;;14.00;90.30;;;;;;5030358;28;20072;-77
2024/03/30 06:14:49;;;;;;;29.90;6.45;;;14.30;88.50;;;;;;5028373;28;20482;-75
2024/03/30 06:17:15;;;;;;;31.80;5.72;;;14.70;87.70;;;;;;5027345;28;20029;-76
2024/03/30 06:19:41;;;;;;;34.85;5.22;;;14.90;86.70;;;;;;5030312;28;20394;-78
2024/03/30 06:22:07;;;;;;;29.48;4.90;;;15.30;84.70;;;;;;5029864;28;20037;-75
2024/03/30 06:24:33;;;;;;;23.45;4.72;;;15.60;85.00;;;;;;5021790;28;20029;-76
2024/03/30 06:26:58;;;;;;;29.23;6.22;;;15.80;84.50;;;;;;5029187;28;20053;-76
2024/03/30 06:29:24;;;;;;;27.58;6.30;;;16.00;83.60;;;;;;5029835;28;20497;-77
2024/03/30 06:31:49;;;;;;;25.55;5.40;;;16.20;86.70;;;;;;5028020;28;20083;-77
2024/03/30 06:34:15;;;;;;;37.65;6.25;;;16.30;87.10;;;;;;5030347;28;20022;-76
2024/03/30 06:36:40;;;;;;;22.52;5.75;;;16.40;90.00;;;;;;5028654;28;20494;-77
2024/03/30 06:39:06;;;;;;;37.03;6.35;;;16.40;90.50;;;;;;5030440;28;20043;-77
2024/03/30 06:44:16;;;;;;;30.60;6.75;;;16.20;91.40;;;;;;5032969;28;20039;-75
2024/03/30 06:46:42;;;;;;;32.60;5.70;;;16.10;91.60;;;;;;5030264;28;20152;-80
2024/03/30 06:49:08;;;;;;;25.85;5.82;;;16.00;91.10;;;;;;5030088;28;20132;-74
2024/03/30 06:51:33;;;;;;;31.73;5.18;;;16.00;89.50;;;;;;5029707;28;20028;-75
2024/03/30 06:53:59;;;;;;;28.73;5.55;;;16.00;88.20;;;;;;5029093;28;20466;-80
2024/03/30 06:56:24;;;;;;;35.92;5.43;;;16.10;86.00;;;;;;5029114;28;20025;-74
2024/03/30 06:58:50;;;;;;;40.83;6.28;;;16.30;83.80;;;;;;5029450;28;20435;-73
2024/03/30 07:01:16;;;;;;;30.65;5.85;;;16.40;81.60;;;;;;5022796;28;20416;-75
2024/03/30 07:03:42;;;;;;;29.10;5.47;;;16.60;81.20;;;;;;5029109;28;20048;-72
2024/03/30 07:06:09;;;;;;;37.05;6.00;;;16.70;81.30;;;;;;5028396;28;20450;-73
2024/03/30 07:08:35;;;;;;;40.85;5.30;;;16.80;80.30;;;;;;5029630;28;20017;-75
2024/03/30 07:11:01;;;;;;;46.65;6.70;;;16.90;80.20;;;;;;5028223;28;20029;-71
2024/03/30 07:13:27;;;;;;;39.13;5.47;;;16.90;80.10;;;;;;5027990;28;20026;-70
2024/03/30 07:15:52;;;;;;;30.70;4.75;;;16.90;80.10;;;;;;5026375;28;20044;-72
2024/03/30 07:18:19;;;;;;;47.90;6.78;;;16.90;80.00;;;;;;5029467;28;20030;-71
2024/03/30 07:20:44;;;;;;;44.55;5.65;;;16.80;78.50;;;;;;5019879;28;20040;-69
2024/03/30 07:23:10;;;;;;;27.50;5.55;;;16.90;78.30;;;;;;5029392;28;20029;-69
2024/03/30 07:25:37;;;;;;;34.90;6.40;;;16.90;78.50;;;;;;5029432;28;20061;-69
2024/03/30 07:28:04;;;;;;;49.40;6.28;;;16.90;79.10;;;;;;5029156;28;20033;-71
2024/03/30 07:30:30;;;;;;;28.45;5.78;;;16.90;77.80;;;;;;5029357;28;20128;-74
2024/03/30 07:32:55;;;;;;;23.20;4.22;;;16.90;78.20;;;;;;5031075;28;20096;-70
2024/03/30 07:35:21;;;;;;;26.65;4.85;;;16.90;78.80;;;;;;5028324;28;20029;-73
2024/03/30 07:37:46;;;;;;;31.83;5.00;;;16.90;79.10;;;;;;5038229;28;20060;-71
2024/03/30 07:40:12;;;;;;;29.15;4.32;;;16.90;79.60;;;;;;5043846;28;20037;-70
2024/03/30 07:42:38;;;;;;;33.28;5.60;;;16.80;79.70;;;;;;5039456;28;20100;-74
2024/03/30 07:45:03;;;;;;;42.67;7.68;;;16.80;79.20;;;;;;5038321;28;20025;-71
2024/03/30 07:47:29;;;;;;;47.70;6.82;;;16.90;78.00;;;;;;5023422;28;20437;-72
2024/03/30 07:49:55;;;;;;;38.97;6.05;;;16.80;79.20;;;;;;5029124;28;20040;-74
2024/03/30 07:52:20;;;;;;;43.72;7.00;;;16.80;78.90;;;;;;5029893;28;20033;-72
2024/03/30 07:54:46;;;;;;;30.95;5.22;;;16.70;81.00;;;;;;5032999;28;20061;-72
2024/03/30 07:57:11;;;;;;;43.13;6.53;;;16.70;78.90;;;;;;5029762;28;20033;-72
2024/03/30 07:59:37;;;;;;;40.65;7.15;;;16.60;79.40;;;;;;5039938;28;20527;-72
2024/03/30 08:02:03;;;;;;;39.33;5.97;;;16.60;80.90;;;;;;5041668;28;20378;-72
2024/03/30 08:04:28;;;;;;;31.92;6.82;;;16.50;81.70;;;;;;5043829;28;20049;-71
2024/03/30 08:06:56;;;;;;;32.33;6.53;;;16.40;83.80;;;;;;5034928;28;20041;-74
2024/03/30 08:09:22;;;;;;;54.33;7.32;;;16.30;85.10;;;;;;5033259;28;20072;-72
2024/03/30 08:11:48;;;;;;;32.33;5.75;;;16.40;86.50;;;;;;5022808;28;20027;-71
2024/03/30 08:14:19;;;;;;;34.95;6.40;;;16.30;87.10;;;;;;5032271;28;20034;-73
2024/03/30 08:16:45;;;;;;;45.20;5.88;;;16.00;88.80;;;;;;5022630;28;20033;-71
2024/03/30 08:19:11;;;;;;;38.47;6.43;;;15.80;89.40;;;;;;5031972;28;20470;-76
2024/03/30 08:21:39;;;;;;;35.25;6.30;;;15.60;90.10;;;;;;5032347;28;20021;-73
2024/03/30 08:24:05;;;;;;;35.85;5.38;;;15.40;90.30;;;;;;5015044;28;20034;-76
2024/03/30 08:26:31;;;;;;;27.70;5.03;;;15.30;90.90;;;;;;5027593;28;20049;-75
2024/03/30 08:28:56;;;;;;;28.92;4.25;;;15.10;91.20;;;;;;5031842;28;20133;-74
2024/03/30 08:31:22;;;;;;;28.95;5.70;;;15.00;91.30;;;;;;5030971;28;20064;-74
2024/03/30 08:33:50;;;;;;;31.92;7.03;;;14.90;91.70;;;;;;5032228;28;20183;-74
2024/03/30 08:36:16;;;;;;;42.45;7.03;;;14.80;92.30;;;;;;5031751;28;20044;-74
2024/03/30 08:38:41;;;;;;;40.92;7.93;;;14.70;92.80;;;;;;5039487;28;20014;-76
2024/03/30 08:41:07;;;;;;;26.95;5.88;;;14.60;92.70;;;;;;5040314;28;20033;-76
2024/03/30 08:43:33;;;;;;;44.75;7.25;;;14.60;92.60;;;;;;5042956;28;20034;-75
2024/03/30 08:46:02;;;;;;;42.70;6.55;;;14.60;92.60;;;;;;5036081;28;20033;-72
2024/03/30 08:48:28;;;;;;;35.20;6.43;;;14.60;92.70;;;;;;5032003;28;20049;-73
2024/03/30 08:50:53;;;;;;;43.30;6.80;;;14.60;92.80;;;;;;5030873;28;20127;-73
2024/03/30 08:53:19;;;;;;;46.33;7.47;;;14.60;92.70;;;;;;5032346;28;20583;-71
2024/03/30 08:55:45;;;;;;;32.88;6.03;;;14.60;92.80;;;;;;5041757;28;20029;-76
2024/03/30 08:58:11;;;;;;;30.80;5.05;;;14.60;92.80;;;;;;5046135;28;20017;-72
2024/03/30 09:00:37;;;;;;;43.75;6.60;;;14.50;92.80;;;;;;5037004;28;20101;-72
2024/03/30 09:03:03;;;;;;;44.00;7.45;;;14.60;93.10;;;;;;5044773;28;20029;-76
2024/03/30 09:05:32;;;;;;;34.50;6.68;;;14.60;94.40;;;;;;5042419;28;20050;-73
2024/03/30 09:07:57;;;;;;;32.95;6.35;;;14.50;94.30;;;;;;5041758;28;20152;-74
2024/03/30 09:10:25;;;;;;;30.70;6.40;;;14.50;94.60;;;;;;5042987;28;20048;-74
2024/03/30 09:12:51;;;;;;;35.08;6.00;;;14.40;94.40;;;;;;5035765;28;20109;-76
2024/03/30 09:15:19;;;;;;;30.08;4.70;;;14.40;94.00;;;;;;5033281;28;20031;-76
2024/03/30 09:17:45;;;;;;;23.88;5.00;;;14.40;93.70;;;;;;5031988;28;20025;-75
2024/03/30 09:20:10;;;;;;;31.40;5.90;;;14.40;94.10;;;;;;5034369;28;20518;-76
2024/03/30 09:22:37;;;;;;;27.05;5.60;;;14.40;94.40;;;;;;5032423;28;20101;-75
2024/03/30 09:25:07;;;;;;;28.70;6.18;;;14.40;94.80;;;;;;5032108;28;20029;-78
2024/03/30 09:27:34;;;;;;;17.70;4.35;;;14.50;95.10;;;;;;5031382;28;20455;-74
2024/03/30 09:29:59;;;;;;;37.83;6.50;;;14.50;95.30;;;;;;5027371;28;20038;-73
2024/03/30 09:32:25;;;;;;;29.90;6.53;;;14.60;95.70;;;;;;5018348;28;20033;-74
2024/03/30 09:34:50;;;;;;;49.10;6.88;;;14.60;95.90;;;;;;5030421;28;20049;-73
2024/03/30 09:37:16;;;;;;;47.10;7.20;;;14.60;95.50;;;;;;5030882;28;20036;-75
2024/03/30 09:39:43;;;;;;;40.83;6.75;;;14.60;95.30;;;;;;5030994;28;20052;-77
2024/03/30 09:42:15;;;;;;;39.05;6.40;;;14.60;95.50;;;;;;5031131;28;20100;-80
2024/03/30 09:44:41;;;;;;;47.45;6.63;;;14.70;95.30;;;;;;5029739;28;20041;-83
2024/03/30 09:47:08;;;;;;;39.17;6.07;;;14.70;95.00;;;;;;5021664;28;20041;-78
2024/03/30 09:49:35;;;;;;;56.63;7.60;;;14.70;94.90;;;;;;5016637;28;20037;-75
2024/03/30 09:52:03;;;;;;;27.88;6.03;;;14.80;94.60;;;;;;5010585;28;20136;-75
2024/03/30 09:54:29;;;;;;;48.92;8.05;;;14.80;94.30;;;;;;5011687;28;20431;-75
2024/03/30 09:56:56;;;;;;;33.20;5.70;;;14.90;94.20;;;;;;5021866;28;20459;-75
2024/03/30 09:59:22;;;;;;;34.55;5.82;;;14.90;93.90;;;;;;5023294;28;20033;-74
2024/03/30 10:01:48;;;;;;;39.13;6.32;;;14.90;94.20;;;;;;5029140;28;20454;-75
2024/03/30 10:04:13;;;;;;;32.08;5.03;;;15.00;94.30;;;;;;5028078;28;20087;-74
2024/03/30 10:07:00;;;;;;;41.80;8.05;;;15.00;94.90;;;;;;5029055;28;20033;-69
2024/03/30 10:09:26;;;;;;;35.85;6.60;;;15.00;95.30;;;;;;5029597;28;20091;-74
2024/03/30 10:11:58;;;;;;;30.45;6.43;;;15.10;95.10;;;;;;5028665;28;20104;-74
2024/03/30 10:14:33;;;;;;;37.30;6.57;;;15.10;95.10;;;;;;5029231;28;20089;-74
2024/03/30 10:17:00;;;;;;;26.35;5.78;;;15.10;95.50;;;;;;5029411;28;20040;-73
2024/03/30 10:19:28;;;;;;;32.33;6.25;;;15.10;95.80;;;;;;5029882;28;20017;-75
2024/03/30 10:21:55;;;;;;;25.17;6.25;;;15.20;96.20;;;;;;5028677;28;20455;-73
2024/03/30 10:24:20;;;;;;;36.17;7.20;;;15.20;96.60;;;;;;5029538;28;20026;-72
2024/03/30 10:26:46;;;;;;;30.98;6.32;;;15.30;96.70;;;;;;5028224;28;20171;-74
2024/03/30 10:29:12;;;;;;;26.63;5.68;;;15.40;96.50;;;;;;5027226;28;21559;-73
2024/03/30 10:31:40;;;;;;;26.02;5.72;;;15.50;96.80;;;;;;5028920;28;20025;-73
2024/03/30 10:34:10;;;;;;;19.17;5.60;;;15.60;96.80;;;;;;5029455;28;20374;-76
2024/03/30 10:36:37;;;;;;;26.85;5.45;;;15.80;96.70;;;;;;5029328;28;20463;-77
2024/03/30 10:39:04;;;;;;;23.20;5.57;;;15.90;96.30;;;;;;5029865;28;20025;-80
2024/03/30 10:41:30;;;;;;;20.15;5.32;;;16.00;96.30;;;;;;5021781;28;20064;-76
2024/03/30 10:43:56;;;;;;;21.80;5.00;;;16.20;96.60;;;;;;5029276;28;20092;-77
2024/03/30 10:46:25;;;;;;;33.17;6.95;;;16.30;96.50;;;;;;5020276;28;20034;-78
2024/03/30 10:48:52;;;;;;;36.95;7.45;;;16.40;96.90;;;;;;5029537;28;20030;-76
2024/03/30 10:51:18;;;;;;;37.40;6.20;;;16.40;97.10;;;;;;5019778;28;20033;-82
2024/03/30 10:53:44;;;;;;;35.60;7.60;;;16.50;97.00;;;;;;5029313;28;20040;-75
2024/03/30 10:56:10;;;;;;;39.33;8.35;;;16.50;97.20;;;;;;5028787;28;20034;-75
2024/03/30 10:58:37;;;;;;;46.13;7.30;;;16.60;97.10;;;;;;5029952;28;20021;-76
2024/03/30 11:01:05;;;;;;;40.35;8.73;;;16.70;96.40;;;;;;5029429;28;20037;-73
2024/03/30 11:03:32;;;;;;;38.25;7.43;;;16.80;96.10;;;;;;5030807;28;20160;-70
2024/03/30 11:05:59;;;;;;;31.10;7.00;;;16.80;95.50;;;;;;5031507;28;20072;-69
2024/03/30 11:08:26;;;;;;;46.55;8.48;;;16.90;95.20;;;;;;5033756;28;20363;-71
2024/03/30 11:10:53;;;;;;;41.20;7.43;;;17.00;94.60;;;;;;5031638;28;20037;-75
2024/03/30 11:13:19;;;;;;;48.92;9.00;;;17.10;94.40;;;;;;5028504;28;20096;-71
2024/03/30 11:15:46;;;;;;;45.42;7.47;;;17.10;94.40;;;;;;5024827;28;20072;-72
2024/03/30 11:18:28;;;;;;;40.72;7.47;;;17.10;95.00;;;;;;5032996;28;20045;-73
2024/03/30 11:21:12;;;;;;;37.53;7.80;;;17.20;94.50;;;;;;5031988;28;20118;-75
2024/03/30 11:23:49;;;;;;;43.58;7.90;;;17.20;94.10;;;;;;5033012;28;20028;-75
2024/03/30 11:26:20;;;;;;;51.47;8.57;;;17.30;94.20;;;;;;5032409;28;20035;-75
2024/03/30 11:29:20;;;;;;;45.33;8.20;;;17.40;95.40;;;;;;5032293;28;20459;-75
2024/03/30 11:31:51;;;;;;;49.63;8.48;;;17.60;92.60;;;;;;5031181;28;20380;-76
2024/03/30 11:34:43;;;;;;;32.50;6.50;;;17.80;92.30;;;;;;5029573;28;20052;-74
2024/03/30 11:37:26;;;;;;;41.08;8.02;;;17.80;91.10;;;;;;5035756;28;20040;-76
2024/03/30 11:40:20;;;;;;;40.72;8.60;;;17.90;91.40;;;;;;5037473;28;20347;-75
2024/03/30 11:43:12;;;;;;;48.33;8.15;;;18.00;91.60;;;;;;5037791;28;20076;-78
2024/03/30 11:45:40;;;;;;;35.65;7.75;;;18.00;90.40;;;;;;5019619;28;20084;-77
2024/03/30 11:48:07;;;;;;;41.20;8.02;;;18.10;90.90;;;;;;5033090;28;20078;-77
2024/03/30 11:50:33;;;;;;;36.38;8.13;;;18.10;92.30;;;;;;5032753;28;20045;-78
2024/03/30 11:52:59;;;;;;;41.90;7.38;;;18.10;91.90;;;;;;5029346;28;20025;-76
2024/03/30 11:55:28;;;;;;;37.83;7.22;;;18.00;92.10;;;;;;5025680;28;20393;-76
2024/03/30 11:57:54;;;;;;;33.72;7.68;;;18.00;92.80;;;;;;5029138;28;20175;-76
2024/03/30 12:00:25;;;;;;;35.95;7.78;;;18.00;93.30;;;;;;5033642;28;20040;-76
2024/03/30 12:03:05;;;;;;;38.85;8.20;;;17.90;93.70;;;;;;5025852;28;20470;-76
2024/03/30 12:05:32;;;;;;;44.97;8.80;;;17.90;93.10;;;;;;5032980;28;20061;-76
2024/03/30 12:08:03;;;;;;;36.88;7.78;;;17.80;92.00;;;;;;5031838;28;20106;-75
2024/03/30 12:10:28;;;;;;;28.50;6.55;;;17.80;92.20;;;;;;5032949;28;20030;-76
2024/03/30 12:12:58;;;;;;;33.97;7.63;;;17.80;91.50;;;;;;5029529;28;20033;-75
2024/03/30 12:15:28;;;;;;;29.23;6.88;;;17.80;92.00;;;;;;5029401;28;20032;-76
2024/03/30 12:17:53;;;;;;;38.13;8.03;;;17.80;91.60;;;;;;5031745;28;20041;-76
2024/03/30 12:20:19;;;;;;;34.25;7.53;;;17.90;90.40;;;;;;5019914;28;20022;-76
2024/03/30 12:22:45;;;;;;;32.78;8.02;;;17.90;90.90;;;;;;5031903;28;20109;-76
2024/03/30 12:25:12;;;;;;;30.48;6.97;;;18.00;91.80;;;;;;5031805;28;20390;-75
2024/03/30 12:27:40;;;;;;;26.98;7.45;;;18.00;92.20;;;;;;5031744;28;20038;-76
2024/03/30 12:30:07;;;;;;;41.90;9.65;;;18.00;92.20;;;;;;5032662;28;20138;-76
2024/03/30 12:32:33;;;;;;;41.22;9.63;;;17.90;91.90;;;;;;5032444;28;20022;-74
2024/03/30 12:34:59;;;;;;;40.10;9.73;;;17.90;92.00;;;;;;5031871;28;20029;-75
2024/03/30 12:37:25;;;;;;;33.40;9.23;;;17.80;91.90;;;;;;5032079;28;20029;-76
2024/03/30 12:39:51;;;;;;;30.30;7.53;;;17.80;92.70;;;;;;5043522;28;20043;-75
2024/03/30 12:42:20;;;;;;;28.83;7.75;;;17.80;93.40;;;;;;5026979;28;20030;-75
2024/03/30 12:44:48;;;;;;;36.55;8.65;;;17.90;93.60;;;;;;5032063;28;20026;-75